Details From KNOW - Port Angeles Cgas
To KNUW - Whidbey Island Nas
Flight Number -
Tags Generated
Created
Modified
Stats Distance 33 nm / 61 km
Max Altitude 0 ft / 0 m
Waypoints 2
Social Downloads 2
Likes 0
Share VATSIM

Download

Looking for another format? Having issues loading an existing format? Contact us
Advertisement - Login to hide

Notes

Generated

Route

KNOW KNUW

ID Type Via Altitude Latitude Longitude Leg Dist Tot Dist Heading (true) Name
O KNOW APT - 0 ft / 0 m 48.14167˚ -123.42315˚ - 0 nm - -
O KNUW APT - 0 ft / 0 m 48.36167˚ -122.66246˚ 33 nm 33 nm 66° / 67° -

Altitude Profile

Advertisement - Login to hide

KNOW

Details ICAO KNOW (NOW)
Name PORT ANGELES CGAS
Region United States
Timezone Unknown (UTC+0.0)
Stats Elevation 13 ft / 4 m (AMSL)
Location 48.141293° -123.413955°
Runways 1
Magnetic Variation 15.979° E

METAR

KNOW 241755Z AUTO 28012G15KT 10SM OVC016 12/09 A3008 RMK AO2 T01190091 10121 20108

Decode

TAF

Not found

Departure Runways

ID Width Length Bearing (true) Bearing (mag) Surface Threshold Offset Overrun Length
07 151 ft / 46 m 4,488 ft / 1,368 m 93.55° 77.57° Asphalt 0 ft / 0 m 0 ft / 0 m
25 151 ft / 46 m 4,488 ft / 1,368 m 273.57° 257.59° Asphalt 0 ft / 0 m 0 ft / 0 m

KNUW

Details ICAO KNUW (NUW)
Name WHIDBEY ISLAND NAS
Region United States
Timezone America/Los_Angeles (UTC-7.0)
Stats Elevation 47 ft / 14 m (AMSL)
Location 48.351803° -122.655907°
Runways 2
Magnetic Variation 15.901° E

METAR

KNUW 241756Z 24006KT 10SM SCT015 BKN023 OVC040 14/11 A3011 RMK AO2 SLP197 T01440106 10144 20133 51013 $

Decode

TAF

TAF KNUW 2415/2515 25010G16KT 9999 FEW010 BKN020 BKN050 BKN250 QNH3002INS TEMPO 2415/2418 23007KT 9999 VCFG SCT007 BKN015 OVC040 FM242000 25009KT 9999 SCT025 BKN035 BKN120 BKN250 QNH3004INS TEMPO 2420/2422 VRB06KT 9999 SCT025 BKN040 BKN140 BECMG 2422/2500 26008G15KT 9999 SCT040 SCT080 QNH3000INS TEMPO 2511/2515 22006KT 4800 BR VCFG BKN010 T11/2413Z T17/2423Z FS30004

Decode

Destination Runways

ID Width Length Bearing (true) Bearing (mag) Surface Threshold Offset Overrun Length
07 200 ft / 61 m 7,977 ft / 2,432 m 86.95° 71.05° Concrete 0 ft / 0 m 1,000 ft / 305 m
13 200 ft / 61 m 7,999 ft / 2,438 m 154.71° 138.81° Concrete 0 ft / 0 m 1,000 ft / 305 m
25 200 ft / 61 m 7,977 ft / 2,432 m 266.97° 251.07° Concrete 0 ft / 0 m 1,000 ft / 305 m
31 200 ft / 61 m 7,999 ft / 2,438 m 334.72° 318.82° Concrete 0 ft / 0 m 1,000 ft / 305 m

Approach Navaids

Runway Type Ident Frequency Range Bearing (true) Bearing (mag) Slope Elevation
13 Localiser INUW 110.10 MHz 18 nm / 33 km 154.72° 138.82° - 47 ft / 14 m (AMSL)
13 Glidescope INUW 110.10 MHz 10 nm / 19 km 154.71° 138.81° 3.00° 47 ft / 14 m (AMSL)